ローマ・レオナルド・ダ・ビンチ国際空港の過去48時間の天気

ローマ・レオナルド・ダ・ビンチ国際空港 (Roma Fiumicino)

現在時刻: 9/19 00:30 CEST (9/18 22:30 UTC) 以下の時間は現地時間です。

過去48時間のMETAR気象情報
時間 風向 風速(m/s) 視程 気温(℃) 湿度(%) 気圧(hPa) 天気現象
19 00:20 東南東 2 10km以上 21 94 1013
18 23:50 不定 1 10km以上 22 88 1013
18 23:20 1 10km以上 22 88 1013
18 22:50 南東 1 10km以上 22 88 1013
18 22:20 不定 1 10km以上 23 83 1013
18 21:50 西 1 10km以上 23 83 1013
LIRF 182220Z 11004KT 9999 SCT015 21/20 Q1013 NOSIG
LIRF 182150Z VRB02KT 9999 SCT015 22/20 Q1013 NOSIG
LIRF 182120Z 17002KT 9999 SCT015 22/20 Q1013 NOSIG
LIRF 182050Z 13002KT 9999 SCT015 22/20 Q1013 NOSIG
LIRF 182020Z VRB01KT 9999 SCT017 23/20 Q1013 NOSIG
LIRF 181950Z 26001KT CAVOK 23/20 Q1013 NOSIG